Time;durP1;ratioP1;P1;durP2;ratioP2;P2;SDS_P1;SDS_P2;PMS_P1;PMS_P2;Temp;Humidity;BMP_temperature;BMP_pressure;BME280_temperature;BME280_humidity;BME280_pressure;Samples;Min_cycle;Max_cycle;Signal;HPM_P1;HPM_P2
2021/08/29 00:01:04;;;;;;;8.07;3.95;;;;;;;16.28;75.25;102316.78;5064479;28;20024;-82
2021/08/29 00:03:29;;;;;;;7.10;4.03;;;;;;;16.19;75.14;102315.50;5065159;28;20113;-82
2021/08/29 00:05:55;;;;;;;6.80;4.07;;;;;;;16.46;74.42;102306.91;5063884;28;20076;-82
2021/08/29 00:08:20;;;;;;;9.55;4.35;;;;;;;16.18;74.99;102316.41;5063960;28;20047;-80
2021/08/29 00:10:48;;;;;;;9.40;4.35;;;;;;;16.30;74.38;102309.56;5046798;28;20119;-81
2021/08/29 00:13:15;;;;;;;9.73;4.45;;;;;;;16.31;74.49;102308.63;5046930;28;20041;-80
2021/08/29 00:15:40;;;;;;;13.02;4.80;;;;;;;16.27;74.31;102309.75;5062996;28;20029;-82
2021/08/29 00:18:06;;;;;;;8.07;4.68;;;;;;;16.16;74.46;102310.31;5063058;28;20025;-84
2021/08/29 00:20:32;;;;;;;12.10;4.50;;;;;;;16.29;74.09;102306.03;5063228;28;20032;-81
2021/08/29 00:22:58;;;;;;;9.73;4.00;;;;;;;16.05;74.90;102308.22;5045229;28;20036;-81
2021/08/29 00:25:27;;;;;;;7.78;4.30;;;;;;;16.13;74.78;102305.16;5062321;28;20037;-82
2021/08/29 00:27:55;;;;;;;7.18;3.92;;;;;;;16.12;74.56;102303.41;5044992;28;20033;-83
2021/08/29 00:30:22;;;;;;;8.35;4.18;;;;;;;16.18;74.50;102303.06;5044951;28;20439;-81
2021/08/29 00:32:47;;;;;;;7.35;3.92;;;;;;;16.17;74.33;102293.34;5063418;28;20025;-80
2021/08/29 00:35:13;;;;;;;11.77;4.55;;;;;;;16.17;74.15;102299.56;5070899;22;20086;-82
2021/08/29 00:37:38;;;;;;;7.82;4.40;;;;;;;16.17;73.66;102296.03;5041249;28;20043;-80
2021/08/29 00:40:07;;;;;;;9.25;4.25;;;;;;;16.09;74.22;102298.22;5058692;28;20037;-81
2021/08/29 00:42:35;;;;;;;8.35;3.97;;;;;;;16.05;73.80;102295.72;5025809;28;20021;-81
2021/08/29 00:45:01;;;;;;;9.95;4.32;;;;;;;16.10;73.47;102294.63;5024950;28;20403;-81
2021/08/29 00:47:26;;;;;;;8.40;4.13;;;;;;;16.00;73.69;102292.47;5058718;28;20039;-80
2021/08/29 00:49:52;;;;;;;9.13;4.05;;;;;;;15.94;73.79;102295.38;5040703;28;20426;-80
2021/08/29 00:52:20;;;;;;;8.32;4.35;;;;;;;15.76;74.49;102302.56;5058315;28;20033;-80
2021/08/29 00:54:45;;;;;;;10.32;3.90;;;;;;;15.74;74.24;102297.31;5060264;28;20417;-80
2021/08/29 00:57:11;;;;;;;11.20;4.40;;;;;;;15.77;74.15;102301.59;5045982;28;20037;-80
2021/08/29 00:59:38;;;;;;;6.30;4.22;;;;;;;15.59;74.68;102295.44;5048023;28;20044;-80
2021/08/29 01:02:24;;;;;;;10.13;4.18;;;;;;;15.61;74.69;102301.56;5042546;28;20029;-80
2021/08/29 01:05:08;;;;;;;10.85;4.15;;;;;;;15.42;75.02;102302.50;5040846;28;20472;-81
2021/08/29 01:07:38;;;;;;;8.85;4.32;;;;;;;15.57;74.70;102299.06;5025681;28;20075;-81
2021/08/29 01:10:09;;;;;;;8.27;4.55;;;;;;;15.50;74.96;102308.28;5059644;28;20033;-84
2021/08/29 01:12:34;;;;;;;9.00;4.22;;;;;;;15.57;74.46;102296.38;5025004;28;20391;-83
2021/08/29 01:15:01;;;;;;;10.23;4.00;;;;;;;15.32;75.61;102286.97;5040699;28;20033;-81
2021/08/29 01:17:28;;;;;;;8.93;4.05;;;;;;;15.45;74.93;102289.00;5024422;28;20060;-82
2021/08/29 01:20:02;;;;;;;9.88;4.68;;;;;;;15.52;74.66;102292.22;5023961;28;20029;-81
2021/08/29 01:22:27;;;;;;;8.48;4.40;;;;;;;15.59;74.64;102284.78;5060487;28;20120;-82
2021/08/29 01:24:54;;;;;;;6.78;4.00;;;;;;;15.54;74.65;102285.88;5026013;28;20041;-81
2021/08/29 01:27:25;;;;;;;10.40;4.35;;;;;;;15.49;74.94;102289.69;5012693;28;20040;-84
2021/08/29 01:29:51;;;;;;;9.32;3.83;;;;;;;15.63;74.32;102289.88;5029763;28;20032;-85
2021/08/29 01:32:17;;;;;;;8.25;3.75;;;;;;;15.85;73.77;102287.88;5045294;28;20059;-84
2021/08/29 01:34:42;;;;;;;10.45;3.90;;;;;;;15.72;73.92;102288.50;5013077;28;20060;-82
2021/08/29 01:37:09;;;;;;;6.93;3.70;;;;;;;15.88;73.28;102280.59;5046600;28;20461;-82
2021/08/29 01:39:35;;;;;;;8.55;4.22;;;;;;;15.90;73.45;102277.84;5028596;28;20124;-82
2021/08/29 01:42:02;;;;;;;10.73;4.45;;;;;;;15.88;73.65;102285.91;5079012;28;20048;-83
2021/08/29 01:44:27;;;;;;;13.05;4.60;;;;;;;15.94;73.53;102282.06;5079529;28;20020;-83
2021/08/29 01:46:53;;;;;;;7.40;4.30;;;;;;;15.96;73.17;102285.50;5061043;28;20031;-81
2021/08/29 01:49:21;;;;;;;12.02;4.25;;;;;;;15.84;73.63;102291.50;5028725;28;20024;-81
2021/08/29 01:51:47;;;;;;;9.15;4.32;;;;;;;15.82;73.71;102288.91;5045610;28;20084;-81
2021/08/29 01:54:14;;;;;;;7.35;4.47;;;;;;;16.00;73.40;102287.13;5080706;28;20024;-81
2021/08/29 01:57:01;;;;;;;8.43;4.20;;;;;;;15.86;73.81;102284.28;5081653;28;20458;-81
2021/08/29 01:59:27;;;;;;;7.55;4.32;;;;;;;16.08;72.99;102292.06;5048845;28;20032;-80
2021/08/29 02:01:53;;;;;;;8.68;4.07;;;;;;;16.11;72.96;102291.00;5066422;28;20040;-80
2021/08/29 02:04:20;;;;;;;7.95;4.43;;;;;;;15.88;73.64;102288.59;5082747;28;20052;-81
2021/08/29 02:06:47;;;;;;;6.28;4.10;;;;;;;15.94;73.55;102287.38;5047452;28;20055;-81
2021/08/29 02:09:12;;;;;;;6.97;4.13;;;;;;;16.12;72.85;102290.06;5081742;28;20446;-83
2021/08/29 02:11:42;;;;;;;7.85;3.67;;;;;;;16.04;73.05;102287.81;5061628;28;20112;-82
2021/08/29 02:14:14;;;;;;;7.63;3.50;;;;;;;15.99;73.28;102284.50;5045628;28;20028;-81
2021/08/29 02:16:41;;;;;;;8.48;3.90;;;;;;;15.91;73.34;102290.22;5080253;28;20459;-83
2021/08/29 02:19:06;;;;;;;7.40;3.70;;;;;;;15.90;73.45;102286.72;5061966;28;20017;-83
2021/08/29 02:21:32;;;;;;;6.28;3.67;;;;;;;15.98;73.36;102293.47;5062437;28;20491;-83
2021/08/29 02:23:57;;;;;;;8.85;3.50;;;;;;;15.86;73.78;102290.47;5045597;28;20021;-82
2021/08/29 02:26:28;;;;;;;7.53;3.38;;;;;;;16.15;73.12;102295.22;5045799;28;20119;-84
2021/08/29 02:28:54;;;;;;;6.82;3.35;;;;;;;16.26;72.64;102286.66;5060599;28;20037;-83
2021/08/29 02:31:21;;;;;;;9.80;4.00;;;;;;;16.34;72.36;102280.88;5044493;28;20044;-83
2021/08/29 02:33:47;;;;;;;7.38;3.05;;;;;;;16.18;72.95;102289.72;5079813;28;20378;-83
2021/08/29 02:36:12;;;;;;;6.95;3.30;;;;;;;16.08;73.32;102284.03;5079416;28;20040;-83
2021/08/29 02:38:38;;;;;;;6.95;3.30;;;;;;;16.26;72.70;102292.84;5079848;28;20033;-83
2021/08/29 02:41:04;;;;;;;7.72;3.35;;;;;;;16.13;73.30;102289.97;5062323;28;20445;-85
2021/08/29 02:43:30;;;;;;;9.00;3.00;;;;;;;15.92;74.21;102295.47;5062876;28;20406;-82
2021/08/29 02:45:56;;;;;;;6.80;3.60;;;;;;;16.11;73.62;102289.22;5062667;28;20048;-83
2021/08/29 02:48:24;;;;;;;7.70;3.22;;;;;;;16.40;72.67;102284.09;5062986;28;20024;-82
2021/08/29 02:50:50;;;;;;;8.25;3.00;;;;;;;16.24;73.34;102283.22;5080288;28;20028;-85
2021/08/29 02:53:18;;;;;;;8.55;3.00;;;;;;;16.33;72.94;102281.84;5080184;28;20031;-83
2021/08/29 02:55:48;;;;;;;7.93;3.10;;;;;;;16.21;73.67;102278.03;5046161;28;20228;-83
2021/08/29 02:58:14;;;;;;;7.95;3.33;;;;;;;16.24;73.31;102276.06;5062504;28;20398;-83
2021/08/29 03:00:40;;;;;;;6.25;2.88;;;;;;;16.03;74.20;102280.75;5062389;28;20029;-83
2021/08/29 03:03:08;;;;;;;10.10;3.65;;;;;;;16.02;74.35;102277.22;5079459;28;20024;-82
2021/08/29 03:05:35;;;;;;;10.10;3.75;;;;;;;16.01;74.19;102270.16;5062132;28;20039;-82
2021/08/29 03:08:01;;;;;;;7.85;3.00;;;;;;;16.04;74.13;102272.66;5079838;28;20029;-82
2021/08/29 03:10:31;;;;;;;6.18;2.90;;;;;;;15.98;74.21;102269.44;5083033;28;20048;-82
2021/08/29 03:12:59;;;;;;;6.57;3.00;;;;;;;16.23;73.52;102270.81;5082825;28;20107;-82
2021/08/29 03:15:25;;;;;;;8.45;2.65;;;;;;;16.14;73.77;102267.72;5064672;28;20033;-82
2021/08/29 03:17:51;;;;;;;11.32;2.90;;;;;;;16.10;73.85;102268.78;5063305;28;20047;-82
2021/08/29 03:20:17;;;;;;;9.88;2.60;;;;;;;16.13;73.87;102260.63;5081292;28;20421;-82
2021/08/29 03:22:44;;;;;;;8.50;2.90;;;;;;;16.04;73.95;102261.13;5081576;28;20111;-83
2021/08/29 03:25:12;;;;;;;9.30;3.15;;;;;;;16.12;73.84;102260.72;5063263;28;20059;-82
2021/08/29 03:27:39;;;;;;;10.35;3.20;;;;;;;16.00;74.28;102260.44;5063223;28;20024;-82
2021/08/29 03:30:05;;;;;;;8.45;2.88;;;;;;;16.27;73.56;102259.03;5080077;28;20391;-83
2021/08/29 03:32:30;;;;;;;9.55;2.97;;;;;;;16.20;73.74;102255.81;5081070;28;20039;-81
2021/08/29 03:34:59;;;;;;;6.35;2.70;;;;;;;16.38;73.02;102255.78;5081087;28;20494;-81
2021/08/29 03:37:26;;;;;;;12.18;3.45;;;;;;;16.37;73.02;102249.56;5080889;28;20055;-83
2021/08/29 03:39:52;;;;;;;10.68;3.13;;;;;;;16.40;72.91;102246.72;5063660;28;20049;-82
2021/08/29 03:42:19;;;;;;;10.48;3.38;;;;;;;16.15;74.13;102244.53;5046825;28;20028;-82
2021/08/29 03:44:44;;;;;;;6.40;2.72;;;;;;;16.38;73.58;102243.25;5080297;28;20032;-82
2021/08/29 03:47:10;;;;;;;15.45;3.00;;;;;;;16.01;74.77;102245.28;5080568;28;20024;-81
2021/08/29 03:49:39;;;;;;;10.90;3.00;;;;;;;16.02;75.10;102241.69;5081812;28;20063;-83
2021/08/29 03:52:06;;;;;;;11.10;3.15;;;;;;;16.19;74.13;102238.94;5063494;28;20035;-83
2021/08/29 03:54:33;;;;;;;13.60;3.22;;;;;;;16.08;74.43;102243.16;5081146;28;20029;-80
2021/08/29 03:56:59;;;;;;;10.95;3.10;;;;;;;16.30;73.75;102243.69;5082247;28;20111;-82
2021/08/29 03:59:24;;;;;;;9.70;3.58;;;;;;;16.42;73.23;102250.19;5080880;28;20032;-81
2021/08/29 04:01:50;;;;;;;9.80;3.17;;;;;;;16.41;73.39;102245.75;5082399;28;20107;-80
2021/08/29 04:04:15;;;;;;;13.18;3.50;;;;;;;16.29;73.48;102246.44;5081838;28;20024;-81
2021/08/29 04:06:41;;;;;;;10.20;3.38;;;;;;;16.31;73.00;102241.88;5064580;28;20020;-80
2021/08/29 04:09:07;;;;;;;12.48;2.90;;;;;;;16.29;73.54;102241.09;5063661;28;20051;-81
2021/08/29 04:11:34;;;;;;;11.20;3.17;;;;;;;16.14;73.70;102238.34;5063955;28;20029;-79
2021/08/29 04:14:01;;;;;;;8.13;3.17;;;;;;;16.26;73.15;102236.81;5081901;28;20035;-80
2021/08/29 04:16:27;;;;;;;13.52;2.83;;;;;;;16.36;72.64;102237.16;5081868;28;20037;-80
2021/08/29 04:18:54;;;;;;;10.93;2.95;;;;;;;16.23;72.96;102236.97;5046694;28;20056;-80
2021/08/29 04:21:24;;;;;;;8.10;3.10;;;;;;;16.43;72.47;102238.53;5080863;28;20037;-80
2021/08/29 04:23:50;;;;;;;10.48;3.40;;;;;;;16.16;73.11;102239.09;5081552;28;20490;-80
2021/08/29 04:26:15;;;;;;;10.60;2.88;;;;;;;16.35;72.36;102248.78;5081737;28;20032;-81
2021/08/29 04:28:41;;;;;;;8.70;3.10;;;;;;;16.20;73.10;102247.81;5080784;28;20040;-83
2021/08/29 04:31:11;;;;;;;11.02;3.22;;;;;;;16.33;72.72;102245.34;5080995;28;20039;-80
2021/08/29 04:33:36;;;;;;;9.80;2.97;;;;;;;16.48;72.35;102242.75;5063373;28;20046;-80
2021/08/29 04:36:10;;;;;;;10.57;2.80;;;;;;;16.15;73.14;102245.41;5060526;22;20124;-83
2021/08/29 04:38:38;;;;;;;8.02;2.80;;;;;;;16.13;73.39;102241.09;5025603;28;20041;-81
2021/08/29 04:41:05;;;;;;;10.80;2.80;;;;;;;16.21;73.41;102238.84;5041425;28;20033;-81
2021/08/29 04:43:31;;;;;;;7.18;3.03;;;;;;;16.21;73.32;102236.19;5041903;28;20037;-81
2021/08/29 04:45:58;;;;;;;11.57;3.38;;;;;;;16.08;73.54;102233.34;5043709;28;20025;-81
2021/08/29 04:48:23;;;;;;;9.25;3.33;;;;;;;16.14;73.63;102243.69;5042671;28;20029;-81
2021/08/29 04:50:50;;;;;;;6.80;2.72;;;;;;;16.24;73.63;102244.03;5043794;28;20419;-80
2021/08/29 04:53:16;;;;;;;8.10;2.97;;;;;;;16.33;73.23;102240.00;5045200;28;20036;-80
2021/08/29 04:55:44;;;;;;;10.07;3.13;;;;;;;16.41;72.85;102248.44;5044093;28;20029;-80
2021/08/29 04:58:10;;;;;;;8.95;3.05;;;;;;;16.37;73.06;102251.34;5043607;28;20029;-80
2021/08/29 05:00:35;;;;;;;9.43;2.97;;;;;;;16.41;73.03;102242.25;5041289;28;20040;-81
2021/08/29 05:03:01;;;;;;;12.85;3.00;;;;;;;16.27;73.59;102251.03;5042185;28;20025;-81
2021/08/29 05:05:26;;;;;;;9.55;3.00;;;;;;;16.32;73.58;102248.94;5039511;28;20116;-81
2021/08/29 05:07:52;;;;;;;9.02;2.88;;;;;;;16.53;72.92;102246.03;5040022;28;20029;-81
2021/08/29 05:10:17;;;;;;;11.38;2.78;;;;;;;16.30;73.71;102249.03;5039889;28;20017;-81
2021/08/29 05:12:43;;;;;;;7.65;2.78;;;;;;;16.14;74.22;102249.03;5041605;28;20492;-85
2021/08/29 05:15:10;;;;;;;10.40;3.10;;;;;;;16.36;73.47;102249.63;5040543;28;20069;-87
2021/08/29 05:17:36;;;;;;;11.55;3.10;;;;;;;16.31;73.84;102244.56;5040630;28;20026;-87
2021/08/29 05:20:01;;;;;;;11.27;3.10;;;;;;;16.23;73.96;102239.66;5024370;28;20025;-86
2021/08/29 05:22:28;;;;;;;10.90;2.95;;;;;;;16.19;74.05;102246.94;5040827;28;20037;-86
2021/08/29 05:24:53;;;;;;;12.77;3.00;;;;;;;16.44;73.38;102244.75;5041232;28;20048;-80
2021/08/29 05:27:19;;;;;;;9.63;2.78;;;;;;;16.26;73.56;102238.59;5022922;28;20380;-82
2021/08/29 05:29:44;;;;;;;7.35;2.85;;;;;;;16.33;73.48;102250.69;5040731;28;20523;-81
2021/08/29 05:32:10;;;;;;;14.15;3.08;;;;;;;16.35;73.43;102243.44;5007539;28;20403;-79
2021/08/29 05:34:36;;;;;;;10.98;3.38;;;;;;;16.49;73.11;102252.50;5039141;28;20040;-81
2021/08/29 05:37:04;;;;;;;12.80;3.13;;;;;;;16.40;73.10;102249.38;5041509;28;20069;-81
2021/08/29 05:39:30;;;;;;;8.98;3.13;;;;;;;16.63;72.57;102246.38;5039474;28;20378;-83
2021/08/29 05:41:55;;;;;;;9.68;3.05;;;;;;;16.73;71.89;102244.03;5023054;28;20079;-82
2021/08/29 05:44:21;;;;;;;9.98;2.70;;;;;;;16.45;72.74;102246.47;5040327;28;20027;-81
2021/08/29 05:46:46;;;;;;;10.18;2.70;;;;;;;16.36;73.05;102233.63;5040342;28;20021;-82
2021/08/29 05:49:12;;;;;;;10.13;2.75;;;;;;;16.67;72.03;102238.13;5040664;28;20030;-82
2021/08/29 05:51:37;;;;;;;7.68;2.80;;;;;;;16.50;72.46;102241.75;5036224;28;20044;-82
2021/08/29 05:54:03;;;;;;;8.48;2.85;;;;;;;16.62;72.22;102240.16;5040789;28;20029;-82
2021/08/29 05:56:28;;;;;;;12.25;3.33;;;;;;;16.58;72.25;102233.28;5039697;28;20045;-83
2021/08/29 05:58:54;;;;;;;8.23;2.97;;;;;;;16.66;72.22;102232.84;5038729;28;20049;-84
2021/08/29 06:01:20;;;;;;;9.40;2.60;;;;;;;16.59;72.14;102234.13;5021586;28;20098;-84
2021/08/29 06:03:46;;;;;;;8.38;2.92;;;;;;;16.59;72.21;102232.34;5032146;28;20025;-82
2021/08/29 06:06:11;;;;;;;10.57;3.13;;;;;;;16.86;71.19;102234.38;5030778;28;20040;-83
2021/08/29 06:08:36;;;;;;;8.77;2.92;;;;;;;16.92;71.30;102231.34;5030653;28;20047;-81
2021/08/29 06:11:03;;;;;;;9.27;2.72;;;;;;;16.83;71.39;102237.22;5032421;28;20026;-82
2021/08/29 06:13:29;;;;;;;8.85;2.65;;;;;;;17.15;70.52;102233.63;5032280;28;20022;-81
2021/08/29 06:15:54;;;;;;;11.55;2.95;;;;;;;16.90;71.23;102233.25;5031547;28;20037;-82
2021/08/29 06:18:20;;;;;;;8.40;2.85;;;;;;;16.94;70.96;102233.94;5031835;28;20025;-81
2021/08/29 06:20:45;;;;;;;8.60;2.65;;;;;;;17.05;70.74;102235.97;5031165;28;20473;-82
2021/08/29 06:23:11;;;;;;;9.60;2.70;;;;;;;16.98;71.18;102231.94;5033383;28;20044;-82
2021/08/29 06:25:36;;;;;;;7.40;2.60;;;;;;;17.00;71.03;102236.25;5031784;28;20503;-82
2021/08/29 06:28:02;;;;;;;12.68;3.08;;;;;;;16.87;71.43;102229.88;5031799;28;20030;-81
2021/08/29 06:30:28;;;;;;;13.25;2.85;;;;;;;17.11;70.84;102230.31;5015642;28;20033;-83
2021/08/29 06:32:53;;;;;;;9.20;2.80;;;;;;;16.99;71.30;102231.84;5016253;28;20021;-81
2021/08/29 06:35:19;;;;;;;7.30;2.40;;;;;;;16.97;71.39;102225.75;5033686;28;20097;-82
2021/08/29 06:37:44;;;;;;;8.15;2.85;;;;;;;16.99;71.47;102221.16;5055327;28;20036;-84
2021/08/29 06:40:10;;;;;;;11.10;3.05;;;;;;;17.02;71.27;102228.16;5055046;28;20082;-82
2021/08/29 06:42:36;;;;;;;9.45;2.95;;;;;;;17.10;71.52;102214.38;5055562;28;20120;-82
2021/08/29 06:45:01;;;;;;;12.52;2.90;;;;;;;17.16;71.26;102214.84;5077416;28;20021;-85
2021/08/29 06:47:27;;;;;;;8.93;3.28;;;;;;;17.37;70.57;102219.88;5078494;28;20035;-81
2021/08/29 06:49:52;;;;;;;12.50;2.83;;;;;;;17.27;71.10;102218.69;5077931;28;20075;-85
2021/08/29 06:52:18;;;;;;;12.55;2.70;;;;;;;17.29;71.24;102214.09;5077160;28;20032;-83
2021/08/29 06:54:43;;;;;;;12.32;3.42;;;;;;;17.43;70.84;102213.31;5077412;28;20050;-87
2021/08/29 06:57:08;;;;;;;12.45;3.17;;;;;;;17.39;70.85;102215.28;5058731;28;20501;-82
2021/08/29 06:59:34;;;;;;;8.85;2.70;;;;;;;17.44;70.93;102204.31;5042345;28;20407;-80
2021/08/29 07:01:59;;;;;;;9.40;2.90;;;;;;;17.47;70.46;102201.47;5025303;28;20490;-80
2021/08/29 07:04:25;;;;;;;13.95;3.05;;;;;;;17.46;70.55;102196.19;5041412;28;20024;-83
2021/08/29 07:06:50;;;;;;;10.07;3.08;;;;;;;17.33;70.84;102201.44;5076086;28;20039;-82
2021/08/29 07:09:16;;;;;;;10.82;3.00;;;;;;;17.44;70.59;102201.66;5076219;28;20024;-80
2021/08/29 07:11:41;;;;;;;11.20;3.58;;;;;;;17.66;69.29;102198.53;5072622;28;20043;-81
2021/08/29 07:14:06;;;;;;;9.60;3.70;;;;;;;17.52;69.39;102209.19;5076215;28;20020;-81
2021/08/29 07:16:32;;;;;;;12.85;3.13;;;;;;;17.61;69.44;102205.09;5076192;28;20029;-81
2021/08/29 07:18:57;;;;;;;11.30;3.10;;;;;;;17.58;69.16;102199.94;5076040;28;20016;-82
2021/08/29 07:21:23;;;;;;;8.30;2.28;;;;;;;17.40;69.92;102205.47;5076235;28;20084;-80
2021/08/29 07:23:49;;;;;;;12.55;2.80;;;;;;;17.55;69.00;102209.00;5076238;28;20108;-80
2021/08/29 07:26:14;;;;;;;13.55;3.00;;;;;;;17.40;70.05;102202.78;5076592;28;20415;-80
2021/08/29 07:28:43;;;;;;;16.50;3.05;;;;;;;17.72;69.19;102210.66;5076624;28;20036;-80
2021/08/29 07:31:09;;;;;;;9.95;2.97;;;;;;;17.55;69.92;102206.34;5077609;28;20028;-80
2021/08/29 07:33:34;;;;;;;9.23;2.78;;;;;;;17.50;69.85;102203.94;5077136;28;20035;-81
2021/08/29 07:36:00;;;;;;;7.45;2.60;;;;;;;17.54;70.27;102209.97;5077162;28;20047;-80
2021/08/29 07:38:26;;;;;;;9.40;2.80;;;;;;;17.33;70.69;102202.28;5059422;28;20039;-79
2021/08/29 07:40:52;;;;;;;10.68;2.97;;;;;;;17.33;70.67;102199.63;5076745;28;20025;-81
2021/08/29 07:43:18;;;;;;;7.10;2.38;;;;;;;17.19;70.77;102189.75;5076604;28;20024;-80
2021/08/29 07:45:43;;;;;;;5.22;2.63;;;;;;;17.42;70.28;102192.84;5058633;28;20410;-79
2021/08/29 07:48:08;;;;;;;11.15;2.67;;;;;;;17.56;69.78;102203.56;5075252;28;20388;-82
2021/08/29 07:50:34;;;;;;;10.88;2.65;;;;;;;17.43;69.77;102213.31;5074731;28;20029;-82
2021/08/29 07:52:59;;;;;;;14.98;2.92;;;;;;;17.43;70.08;102199.94;5075477;28;20036;-80
2021/08/29 07:55:25;;;;;;;8.68;2.72;;;;;;;17.31;69.82;102202.38;5075067;28;20032;-81
2021/08/29 07:57:50;;;;;;;6.65;2.28;;;;;;;17.37;69.20;102209.16;5075092;28;20036;-81
2021/08/29 08:00:16;;;;;;;12.55;2.70;;;;;;;17.30;69.72;102210.50;5074901;28;20054;-81
2021/08/29 08:02:41;;;;;;;9.82;2.28;;;;;;;17.35;69.32;102199.53;5075157;28;20082;-81
2021/08/29 08:05:07;;;;;;;9.98;3.05;;;;;;;17.60;68.92;102200.69;5075137;28;20029;-81
2021/08/29 08:07:32;;;;;;;9.15;2.42;;;;;;;17.43;68.78;102207.97;5075120;28;20060;-81
2021/08/29 08:09:58;;;;;;;8.95;2.60;;;;;;;17.33;69.02;102196.06;5074568;28;20364;-81
2021/08/29 08:12:23;;;;;;;12.65;2.90;;;;;;;17.76;67.30;102190.75;5056101;28;20387;-81
2021/08/29 08:14:49;;;;;;;11.38;3.15;;;;;;;17.56;67.45;102200.03;5073720;28;20467;-81
2021/08/29 08:17:14;;;;;;;8.57;3.00;;;;;;;17.55;68.10;102204.53;5075616;28;20032;-81
2021/08/29 08:19:40;;;;;;;10.05;3.33;;;;;;;17.94;67.48;102206.63;5074801;28;20086;-81
2021/08/29 08:22:05;;;;;;;14.02;2.97;;;;;;;17.69;67.94;102213.50;5074794;28;20036;-80
2021/08/29 08:24:31;;;;;;;13.05;2.90;;;;;;;17.87;68.23;102218.69;5075095;28;20047;-81
2021/08/29 08:26:56;;;;;;;11.15;3.08;;;;;;;17.73;67.89;102203.50;5074680;28;20040;-81
2021/08/29 08:29:21;;;;;;;13.27;2.65;;;;;;;17.79;68.25;102197.75;5056486;28;20036;-82
2021/08/29 08:31:47;;;;;;;12.15;2.45;;;;;;;17.53;68.81;102200.22;5074714;28;20104;-81
2021/08/29 08:36:38;;;;;;;8.27;2.63;;;;;;;18.32;67.25;102204.31;5063973;22;20103;-83
2021/08/29 08:39:03;;;;;;;7.32;2.50;;;;;;;17.87;67.97;102198.13;5036526;28;20737;-85
2021/08/29 08:41:29;;;;;;;11.77;2.55;;;;;;;17.44;69.62;102204.31;5056389;28;20509;-81
2021/08/29 08:43:54;;;;;;;8.48;2.55;;;;;;;17.81;69.02;102214.56;5075301;28;20016;-80
2021/08/29 08:46:20;;;;;;;11.10;2.80;;;;;;;17.98;68.30;102207.31;5057378;28;20067;-80
2021/08/29 08:48:47;;;;;;;12.68;3.05;;;;;;;17.73;68.38;102208.84;5075468;28;20028;-80
2021/08/29 08:51:13;;;;;;;11.50;2.85;;;;;;;17.74;68.15;102207.88;5041034;28;20047;-80
2021/08/29 08:53:40;;;;;;;9.05;2.50;;;;;;;17.80;68.59;102207.50;5040627;28;20036;-88
2021/08/29 08:56:05;;;;;;;12.82;2.95;;;;;;;18.06;67.53;102197.81;5074665;28;20025;-81
2021/08/29 08:58:31;;;;;;;8.27;2.53;;;;;;;17.98;68.03;102201.94;5074779;28;20093;-84
2021/08/29 09:00:56;;;;;;;13.38;2.60;;;;;;;17.87;68.29;102199.94;5074138;28;20024;-81
2021/08/29 09:03:21;;;;;;;7.63;2.65;;;;;;;17.98;68.43;102196.59;5056457;28;20037;-79
2021/08/29 09:05:47;;;;;;;13.18;3.10;;;;;;;18.39;67.77;102197.59;5073520;28;20032;-81
2021/08/29 09:08:12;;;;;;;12.18;2.83;;;;;;;18.37;66.68;102202.19;5073619;28;20489;-83
2021/08/29 09:10:38;;;;;;;15.50;3.35;;;;;;;18.16;66.75;102195.47;5055488;28;20048;-82
2021/08/29 09:13:04;;;;;;;10.68;2.63;;;;;;;18.05;67.28;102196.13;5055937;28;20036;-80
2021/08/29 09:15:33;;;;;;;12.57;2.60;;;;;;;17.81;68.41;102199.38;5073917;28;20025;-80
2021/08/29 09:17:59;;;;;;;12.60;2.47;;;;;;;18.02;68.06;102182.94;5040661;28;20450;-80
2021/08/29 09:20:25;;;;;;;12.50;3.25;;;;;;;17.99;68.05;102183.13;5075079;28;20066;-80
2021/08/29 09:22:58;;;;;;;9.70;3.35;;;;;;;18.20;67.24;102195.25;5055514;28;20166;-79
2021/08/29 09:25:25;;;;;;;11.07;2.58;;;;;;;18.38;67.16;102191.41;5073555;28;20111;-80
2021/08/29 09:27:52;;;;;;;11.55;2.83;;;;;;;18.19;67.69;102191.72;5055219;28;20060;-80
2021/08/29 09:30:18;;;;;;;15.02;3.08;;;;;;;17.79;68.98;102187.91;5073279;28;20530;-79
2021/08/29 09:32:57;;;;;;;12.77;2.75;;;;;;;18.21;67.85;102192.50;5073835;28;20070;-79
2021/08/29 09:35:25;;;;;;;8.35;2.70;;;;;;;17.91;68.44;102185.41;5055426;28;20036;-79
2021/08/29 09:37:51;;;;;;;12.02;3.33;;;;;;;17.98;68.18;102180.53;5071935;28;20036;-80
2021/08/29 09:40:19;;;;;;;11.38;3.00;;;;;;;17.87;68.61;102194.59;5055464;28;20468;-82
2021/08/29 09:42:45;;;;;;;11.43;3.17;;;;;;;17.83;68.99;102188.56;5055101;28;20387;-81
2021/08/29 09:45:22;;;;;;;10.13;2.90;;;;;;;17.53;69.52;102189.50;5073194;28;20017;-79
2021/08/29 09:47:48;;;;;;;13.55;3.40;;;;;;;17.61;69.40;102194.38;5055295;28;20024;-80
2021/08/29 09:50:14;;;;;;;12.20;3.85;;;;;;;17.60;69.95;102201.56;5055354;28;20105;-82
2021/08/29 09:52:40;;;;;;;13.00;3.05;;;;;;;17.71;69.74;102190.22;5073023;28;20028;-79
2021/08/29 09:55:06;;;;;;;12.15;3.53;;;;;;;17.88;69.29;102186.47;5055257;28;20031;-79
2021/08/29 09:57:32;;;;;;;11.65;3.65;;;;;;;17.75;69.38;102182.84;5040605;28;20025;-88
2021/08/29 09:59:57;;;;;;;13.52;2.85;;;;;;;17.66;69.86;102178.94;5062797;28;20027;-84
2021/08/29 10:02:24;;;;;;;12.02;3.28;;;;;;;17.73;69.54;102174.06;5083278;28;20040;-78
2021/08/29 10:05:15;;;;;;;9.60;3.20;;;;;;;17.77;69.50;102172.91;5038873;28;20029;-82
2021/08/29 10:08:08;;;;;;;11.80;3.00;;;;;;;17.94;69.01;102174.50;5055025;28;20069;-80
2021/08/29 10:10:36;;;;;;;10.13;3.08;;;;;;;17.64;69.75;102170.13;5039318;28;20028;-80
2021/08/29 10:13:02;;;;;;;13.93;3.53;;;;;;;17.51;69.89;102168.22;5055080;28;20042;-79
2021/08/29 10:15:27;;;;;;;8.60;2.92;;;;;;;17.31;70.81;102164.97;5055330;28;20028;-79
2021/08/29 10:17:54;;;;;;;14.18;3.70;;;;;;;17.48;70.35;102175.59;5055138;28;20029;-80
2021/08/29 10:20:20;;;;;;;14.75;3.28;;;;;;;17.65;70.22;102161.16;5042490;28;20020;-81
2021/08/29 10:22:49;;;;;;;14.63;3.40;;;;;;;17.53;70.63;102165.44;5058922;28;20071;-80
2021/08/29 10:25:17;;;;;;;16.40;3.42;;;;;;;17.45;71.36;102157.91;5059181;28;20462;-81
2021/08/29 10:27:44;;;;;;;11.05;3.10;;;;;;;17.55;71.04;102148.38;5077057;28;20462;-81
2021/08/29 10:30:10;;;;;;;12.00;3.38;;;;;;;17.64;70.92;102154.09;5059358;28;20086;-80
2021/08/29 10:32:39;;;;;;;10.40;3.05;;;;;;;17.53;71.54;102152.06;5042203;28;20458;-81
2021/08/29 10:35:10;;;;;;;9.60;3.38;;;;;;;17.59;71.44;102157.03;5059016;28;20033;-80
2021/08/29 10:37:36;;;;;;;12.95;3.42;;;;;;;17.73;71.13;102166.03;5076485;28;20043;-79
2021/08/29 10:40:03;;;;;;;13.52;3.45;;;;;;;17.85;70.90;102157.25;5077092;28;20032;-81
2021/08/29 10:42:29;;;;;;;16.05;4.13;;;;;;;17.91;71.05;102161.34;5060927;28;20059;-87
2021/08/29 10:44:54;;;;;;;10.55;3.58;;;;;;;17.74;71.86;102162.41;5061441;28;20028;-89
2021/08/29 10:47:20;;;;;;;15.07;3.55;;;;;;;17.65;72.52;102161.16;5043370;28;20029;-87
2021/08/29 10:49:45;;;;;;;16.30;4.20;;;;;;;17.31;73.96;102167.63;5043505;28;20028;-84
2021/08/29 10:52:11;;;;;;;14.63;3.65;;;;;;;17.33;74.60;102161.31;5077522;28;20036;-88
2021/08/29 10:54:52;;;;;;;14.52;4.13;;;;;;;17.14;75.20;102162.44;5059454;28;20059;-88
2021/08/29 10:57:35;;;;;;;15.15;3.80;;;;;;;17.15;75.53;102156.13;5077377;28;20035;-89
2021/08/29 11:00:17;;;;;;;17.13;3.90;;;;;;;17.22;75.50;102151.28;5059196;28;20020;-89
2021/08/29 11:02:48;;;;;;;18.80;4.37;;;;;;;17.18;75.22;102153.28;5059177;28;20499;-88
2021/08/29 11:05:15;;;;;;;13.23;3.83;;;;;;;17.21;75.69;102153.09;5077433;28;20038;-81
2021/08/29 11:07:48;;;;;;;16.85;4.28;;;;;;;17.11;76.29;102152.81;5076585;28;20490;-79
2021/08/29 11:10:45;;;;;;;18.00;3.60;;;;;;;17.13;76.12;102158.06;5074302;28;20016;-79
2021/08/29 11:13:32;;;;;;;12.88;4.00;;;;;;;17.39;74.98;102158.28;5074998;28;20028;-79
2021/08/29 11:16:29;;;;;;;13.80;3.67;;;;;;;17.53;74.71;102147.59;5075899;28;20051;-79
2021/08/29 11:19:01;;;;;;;13.60;3.60;;;;;;;17.15;76.44;102143.63;5013610;28;20034;-79
2021/08/29 11:21:35;;;;;;;19.55;3.88;;;;;;;17.59;74.98;102140.16;5013604;28;20084;-85
2021/08/29 11:24:04;;;;;;;12.60;3.65;;;;;;;17.62;74.29;102148.00;4998696;28;20100;-85